East Williamson, New York
Current Conditions -  °F | °C
As of 11:54 PM on Sunday 19 Oct 2014 (Local Time) from KROC Reporting Station
Scattered Clouds Scattered Clouds  
Wind Chill: 31°   Ceiling: Unl
Heat Index: 36°   Visibility: 10mi
Dew Point: 31°   Wind: 6mph
Humidity: 82%   Direction: 220°SW
Pressure: 30.02"   Gusts: NA
Location:  43.23°N, 77.15°W
Report Text: KROC 200354Z 22005KT 10SM FEW035 SCT250 02/M01 A3002 RMK AO2 SLP172 T00221006
Loading
Personal Weather Stations






























Interactive Weather Map
Tropical Storm Tracking
New forecast layout! Learn more

10-Day Weather Forecast

Advertisements
Track Severe Weather on mobile